sensor_id;sensor_type;location;lat;lon;timestamp;temperature;humidity
65396;HTU21D;52004;45.136;39.010;2024-03-17T00:01:46;11.23;60.10
65396;HTU21D;52004;45.136;39.010;2024-03-17T00:04:12;11.22;60.10
65396;HTU21D;52004;45.136;39.010;2024-03-17T00:06:38;11.20;60.06
65396;HTU21D;52004;45.136;39.010;2024-03-17T00:09:04;11.20;59.99
65396;HTU21D;52004;45.136;39.010;2024-03-17T00:11:35;11.17;60.00
65396;HTU21D;52004;45.136;39.010;2024-03-17T00:14:04;11.13;59.99
65396;HTU21D;52004;45.136;39.010;2024-03-17T00:16:31;11.10;59.99
65396;HTU21D;52004;45.136;39.010;2024-03-17T00:18:56;11.05;60.01
65396;HTU21D;52004;45.136;39.010;2024-03-17T00:21:22;11.03;60.03
65396;HTU21D;52004;45.136;39.010;2024-03-17T00:23:49;11.01;60.04
65396;HTU21D;52004;45.136;39.010;2024-03-17T00:26:15;10.99;60.09
65396;HTU21D;52004;45.136;39.010;2024-03-17T00:28:41;11.01;60.12
65396;HTU21D;52004;45.136;39.010;2024-03-17T00:31:07;11.01;60.12
65396;HTU21D;52004;45.136;39.010;2024-03-17T00:33:35;11.01;60.09
65396;HTU21D;52004;45.136;39.010;2024-03-17T00:36:01;11.01;60.09
65396;HTU21D;52004;45.136;39.010;2024-03-17T00:38:27;11.00;60.13
65396;HTU21D;52004;45.136;39.010;2024-03-17T00:40:53;10.98;60.10
65396;HTU21D;52004;45.136;39.010;2024-03-17T00:43:19;10.94;60.14
65396;HTU21D;52004;45.136;39.010;2024-03-17T00:45:51;10.88;60.19
65396;HTU21D;52004;45.136;39.010;2024-03-17T00:48:17;10.85;60.26
65396;HTU21D;52004;45.136;39.010;2024-03-17T00:50:43;10.82;60.30
65396;HTU21D;52004;45.136;39.010;2024-03-17T00:53:10;10.78;60.33
65396;HTU21D;52004;45.136;39.010;2024-03-17T00:55:36;10.74;60.37
65396;HTU21D;52004;45.136;39.010;2024-03-17T00:58:02;10.70;60.42
65396;HTU21D;52004;45.136;39.010;2024-03-17T01:00:29;10.67;60.44
65396;HTU21D;52004;45.136;39.010;2024-03-17T01:02:54;10.63;60.53
65396;HTU21D;52004;45.136;39.010;2024-03-17T01:05:21;10.60;60.55
65396;HTU21D;52004;45.136;39.010;2024-03-17T01:07:47;10.58;60.56
65396;HTU21D;52004;45.136;39.010;2024-03-17T01:10:14;10.57;60.57
65396;HTU21D;52004;45.136;39.010;2024-03-17T01:12:40;10.54;60.58
65396;HTU21D;52004;45.136;39.010;2024-03-17T01:15:06;10.52;60.61
65396;HTU21D;52004;45.136;39.010;2024-03-17T01:17:32;10.50;60.65
65396;HTU21D;52004;45.136;39.010;2024-03-17T01:19:58;10.44;60.70
65396;HTU21D;52004;45.136;39.010;2024-03-17T01:22:24;10.42;60.72
65396;HTU21D;52004;45.136;39.010;2024-03-17T01:24:50;10.41;60.72
65396;HTU21D;52004;45.136;39.010;2024-03-17T01:27:16;10.40;60.75
65396;HTU21D;52004;45.136;39.010;2024-03-17T01:29:42;10.38;60.79
65396;HTU21D;52004;45.136;39.010;2024-03-17T01:32:09;10.36;60.84
65396;HTU21D;52004;45.136;39.010;2024-03-17T01:34:35;10.36;60.87
65396;HTU21D;52004;45.136;39.010;2024-03-17T01:37:00;10.36;60.88
65396;HTU21D;52004;45.136;39.010;2024-03-17T01:39:26;10.36;60.86
65396;HTU21D;52004;45.136;39.010;2024-03-17T01:41:52;10.35;60.84
65396;HTU21D;52004;45.136;39.010;2024-03-17T01:44:21;10.29;60.79
65396;HTU21D;52004;45.136;39.010;2024-03-17T01:46:47;10.23;60.82
65396;HTU21D;52004;45.136;39.010;2024-03-17T01:49:13;10.20;60.91
65396;HTU21D;52004;45.136;39.010;2024-03-17T01:51:39;10.18;60.99
65396;HTU21D;52004;45.136;39.010;2024-03-17T01:54:05;10.18;61.03
65396;HTU21D;52004;45.136;39.010;2024-03-17T01:56:32;10.18;61.09
65396;HTU21D;52004;45.136;39.010;2024-03-17T01:58:58;10.19;61.10
65396;HTU21D;52004;45.136;39.010;2024-03-17T02:01:24;10.18;61.04
65396;HTU21D;52004;45.136;39.010;2024-03-17T02:03:51;10.16;61.02
65396;HTU21D;52004;45.136;39.010;2024-03-17T02:06:16;10.15;61.04
65396;HTU21D;52004;45.136;39.010;2024-03-17T02:08:46;10.13;61.02
65396;HTU21D;52004;45.136;39.010;2024-03-17T02:11:22;10.11;61.01
65396;HTU21D;52004;45.136;39.010;2024-03-17T02:13:49;10.07;61.06
65396;HTU21D;52004;45.136;39.010;2024-03-17T02:16:15;10.05;61.11
65396;HTU21D;52004;45.136;39.010;2024-03-17T02:18:42;10.00;61.13
65396;HTU21D;52004;45.136;39.010;2024-03-17T02:21:08;9.98;61.15
65396;HTU21D;52004;45.136;39.010;2024-03-17T02:23:34;9.97;61.14
65396;HTU21D;52004;45.136;39.010;2024-03-17T02:26:00;9.94;61.11
65396;HTU21D;52004;45.136;39.010;2024-03-17T02:28:26;9.93;61.12
65396;HTU21D;52004;45.136;39.010;2024-03-17T02:30:52;9.86;61.17
65396;HTU21D;52004;45.136;39.010;2024-03-17T02:33:18;9.82;61.16
65396;HTU21D;52004;45.136;39.010;2024-03-17T02:35:45;9.76;61.21
65396;HTU21D;52004;45.136;39.010;2024-03-17T02:38:15;9.70;61.28
65396;HTU21D;52004;45.136;39.010;2024-03-17T02:41:01;9.65;61.35
65396;HTU21D;52004;45.136;39.010;2024-03-17T02:43:26;9.63;61.38
65396;HTU21D;52004;45.136;39.010;2024-03-17T02:45:52;0.00;61.41
65396;HTU21D;52004;45.136;39.010;2024-03-17T02:48:18;9.56;61.43
65396;HTU21D;52004;45.136;39.010;2024-03-17T02:50:44;9.54;61.54
65396;HTU21D;52004;45.136;39.010;2024-03-17T02:53:10;9.54;61.57
65396;HTU21D;52004;45.136;39.010;2024-03-17T02:55:35;9.54;61.57
65396;HTU21D;52004;45.136;39.010;2024-03-17T02:58:01;9.50;61.60
65396;HTU21D;52004;45.136;39.010;2024-03-17T03:00:28;9.51;61.64
65396;HTU21D;52004;45.136;39.010;2024-03-17T03:02:55;9.52;61.68
65396;HTU21D;52004;45.136;39.010;2024-03-17T03:05:21;9.53;61.70
65396;HTU21D;52004;45.136;39.010;2024-03-17T03:07:47;9.53;61.70
65396;HTU21D;52004;45.136;39.010;2024-03-17T03:10:13;9.54;61.70
65396;HTU21D;52004;45.136;39.010;2024-03-17T03:12:39;9.54;61.75
65396;HTU21D;52004;45.136;39.010;2024-03-17T03:15:05;9.53;61.75
65396;HTU21D;52004;45.136;39.010;2024-03-17T03:17:31;9.52;61.76
65396;HTU21D;52004;45.136;39.010;2024-03-17T03:19:57;9.49;61.76
65396;HTU21D;52004;45.136;39.010;2024-03-17T03:22:23;9.46;61.86
65396;HTU21D;52004;45.136;39.010;2024-03-17T03:24:51;0.00;61.91
65396;HTU21D;52004;45.136;39.010;2024-03-17T03:27:17;9.47;61.93
65396;HTU21D;52004;45.136;39.010;2024-03-17T03:29:43;9.49;61.92
65396;HTU21D;52004;45.136;39.010;2024-03-17T03:32:09;9.51;61.93
65396;HTU21D;52004;45.136;39.010;2024-03-17T03:34:35;9.52;61.93
65396;HTU21D;52004;45.136;39.010;2024-03-17T03:37:00;9.53;61.89
65396;HTU21D;52004;45.136;39.010;2024-03-17T03:39:26;9.53;61.93
65396;HTU21D;52004;45.136;39.010;2024-03-17T03:41:57;9.55;61.97
65396;HTU21D;52004;45.136;39.010;2024-03-17T03:44:23;9.54;61.96
65396;HTU21D;52004;45.136;39.010;2024-03-17T03:46:48;9.54;61.97
65396;HTU21D;52004;45.136;39.010;2024-03-17T03:49:14;9.53;61.95
65396;HTU21D;52004;45.136;39.010;2024-03-17T03:51:40;9.49;61.94
65396;HTU21D;52004;45.136;39.010;2024-03-17T03:54:06;9.46;61.99
65396;HTU21D;52004;45.136;39.010;2024-03-17T03:56:32;9.42;62.02
65396;HTU21D;52004;45.136;39.010;2024-03-17T03:58:59;9.39;62.07
65396;HTU21D;52004;45.136;39.010;2024-03-17T04:01:25;9.39;62.11
65396;HTU21D;52004;45.136;39.010;2024-03-17T04:03:51;9.37;62.06
65396;HTU21D;52004;45.136;39.010;2024-03-17T04:06:17;9.32;62.08
65396;HTU21D;52004;45.136;39.010;2024-03-17T04:08:43;9.25;62.18
65396;HTU21D;52004;45.136;39.010;2024-03-17T04:11:09;9.20;62.21
65396;HTU21D;52004;45.136;39.010;2024-03-17T04:13:36;9.12;62.31
65396;HTU21D;52004;45.136;39.010;2024-03-17T04:16:06;9.09;62.41
65396;HTU21D;52004;45.136;39.010;2024-03-17T04:18:32;9.06;62.49
65396;HTU21D;52004;45.136;39.010;2024-03-17T04:21:03;9.09;62.51
65396;HTU21D;52004;45.136;39.010;2024-03-17T04:23:29;9.12;62.50
65396;HTU21D;52004;45.136;39.010;2024-03-17T04:25:57;9.11;62.44
65396;HTU21D;52004;45.136;39.010;2024-03-17T04:28:24;9.11;62.48
65396;HTU21D;52004;45.136;39.010;2024-03-17T04:30:49;9.12;62.50
65396;HTU21D;52004;45.136;39.010;2024-03-17T04:33:15;9.12;62.50
65396;HTU21D;52004;45.136;39.010;2024-03-17T04:35:44;9.14;62.54
65396;HTU21D;52004;45.136;39.010;2024-03-17T04:38:10;9.17;62.53
65396;HTU21D;52004;45.136;39.010;2024-03-17T04:40:41;9.17;62.50
65396;HTU21D;52004;45.136;39.010;2024-03-17T04:43:08;9.21;62.55
65396;HTU21D;52004;45.136;39.010;2024-03-17T04:45:34;9.24;62.54
65396;HTU21D;52004;45.136;39.010;2024-03-17T04:48:00;9.27;62.53
65396;HTU21D;52004;45.136;39.010;2024-03-17T04:50:26;9.30;62.52
65396;HTU21D;52004;45.136;39.010;2024-03-17T04:52:58;9.32;62.55
65396;HTU21D;52004;45.136;39.010;2024-03-17T04:55:24;0.00;62.53
65396;HTU21D;52004;45.136;39.010;2024-03-17T04:57:50;9.34;62.54
65396;HTU21D;52004;45.136;39.010;2024-03-17T05:00:15;9.36;62.63
65396;HTU21D;52004;45.136;39.010;2024-03-17T05:02:43;9.38;62.65
65396;HTU21D;52004;45.136;39.010;2024-03-17T05:05:09;9.42;62.66
65396;HTU21D;52004;45.136;39.010;2024-03-17T05:07:36;9.44;62.63
65396;HTU21D;52004;45.136;39.010;2024-03-17T05:10:03;9.45;62.65
65396;HTU21D;52004;45.136;39.010;2024-03-17T05:12:29;9.45;62.66
65396;HTU21D;52004;45.136;39.010;2024-03-17T05:14:55;9.45;62.66
65396;HTU21D;52004;45.136;39.010;2024-03-17T05:17:21;9.42;62.70
65396;HTU21D;52004;45.136;39.010;2024-03-17T05:19:47;9.45;62.86
65396;HTU21D;52004;45.136;39.010;2024-03-17T05:22:12;9.48;62.88
65396;HTU21D;52004;45.136;39.010;2024-03-17T05:24:38;9.52;62.81
65396;HTU21D;52004;45.136;39.010;2024-03-17T05:27:05;9.56;62.82
65396;HTU21D;52004;45.136;39.010;2024-03-17T05:29:30;9.54;62.66
65396;HTU21D;52004;45.136;39.010;2024-03-17T05:31:56;9.49;62.73
65396;HTU21D;52004;45.136;39.010;2024-03-17T05:34:22;9.49;62.86
65396;HTU21D;52004;45.136;39.010;2024-03-17T05:36:52;9.54;62.92
65396;HTU21D;52004;45.136;39.010;2024-03-17T05:39:18;9.57;62.89
65396;HTU21D;52004;45.136;39.010;2024-03-17T05:41:45;9.60;62.82
65396;HTU21D;52004;45.136;39.010;2024-03-17T05:44:14;9.56;62.86
65396;HTU21D;52004;45.136;39.010;2024-03-17T05:46:40;0.00;62.89
65396;HTU21D;52004;45.136;39.010;2024-03-17T05:49:07;9.59;62.90
65396;HTU21D;52004;45.136;39.010;2024-03-17T05:51:33;9.60;62.95
65396;HTU21D;52004;45.136;39.010;2024-03-17T05:53:59;9.65;62.96
65396;HTU21D;52004;45.136;39.010;2024-03-17T05:56:25;9.68;62.92
65396;HTU21D;52004;45.136;39.010;2024-03-17T05:58:51;9.71;62.88
65396;HTU21D;52004;45.136;39.010;2024-03-17T06:01:16;9.71;62.92
65396;HTU21D;52004;45.136;39.010;2024-03-17T06:03:42;9.71;62.92
65396;HTU21D;52004;45.136;39.010;2024-03-17T06:06:08;9.74;62.95
65396;HTU21D;52004;45.136;39.010;2024-03-17T06:08:38;9.78;62.95
65396;HTU21D;52004;45.136;39.010;2024-03-17T06:11:04;9.78;63.02
65396;HTU21D;52004;45.136;39.010;2024-03-17T06:13:30;9.83;63.02
65396;HTU21D;52004;45.136;39.010;2024-03-17T06:15:56;9.85;62.97
65396;HTU21D;52004;45.136;39.010;2024-03-17T06:18:27;9.80;62.98
65396;HTU21D;52004;45.136;39.010;2024-03-17T06:20:53;9.81;63.16
65396;HTU21D;52004;45.136;39.010;2024-03-17T06:23:19;9.88;63.26
65396;HTU21D;52004;45.136;39.010;2024-03-17T06:25:48;9.95;63.22
65396;HTU21D;52004;45.136;39.010;2024-03-17T06:28:15;10.04;63.15
65396;HTU21D;52004;45.136;39.010;2024-03-17T06:30:45;10.06;63.01
65396;HTU21D;52004;45.136;39.010;2024-03-17T06:33:16;10.05;63.09
65396;HTU21D;52004;45.136;39.010;2024-03-17T06:35:44;10.03;62.99
65396;HTU21D;52004;45.136;39.010;2024-03-17T06:38:10;10.04;63.14
65396;HTU21D;52004;45.136;39.010;2024-03-17T06:40:37;10.10;63.13
65396;HTU21D;52004;45.136;39.010;2024-03-17T06:43:03;10.15;63.13
65396;HTU21D;52004;45.136;39.010;2024-03-17T06:45:29;10.23;63.08
65396;HTU21D;52004;45.136;39.010;2024-03-17T06:47:55;10.28;63.03
65396;HTU21D;52004;45.136;39.010;2024-03-17T06:50:21;10.34;62.95
65396;HTU21D;52004;45.136;39.010;2024-03-17T06:52:47;10.38;62.98
65396;HTU21D;52004;45.136;39.010;2024-03-17T06:55:13;10.39;62.82
65396;HTU21D;52004;45.136;39.010;2024-03-17T06:57:42;10.35;62.84
65396;HTU21D;52004;45.136;39.010;2024-03-17T07:00:14;10.29;62.92
65396;HTU21D;52004;45.136;39.010;2024-03-17T07:02:45;10.26;63.03
65396;HTU21D;52004;45.136;39.010;2024-03-17T07:05:12;10.24;63.08
65396;HTU21D;52004;45.136;39.010;2024-03-17T07:07:43;10.28;63.16
65396;HTU21D;52004;45.136;39.010;2024-03-17T07:10:09;10.33;63.17
65396;HTU21D;52004;45.136;39.010;2024-03-17T07:12:39;10.31;63.10
65396;HTU21D;52004;45.136;39.010;2024-03-17T07:15:06;10.31;63.11
65396;HTU21D;52004;45.136;39.010;2024-03-17T07:17:32;0.00;63.18
65396;HTU21D;52004;45.136;39.010;2024-03-17T07:19:58;10.35;63.18
65396;HTU21D;52004;45.136;39.010;2024-03-17T07:22:23;10.41;63.27
65396;HTU21D;52004;45.136;39.010;2024-03-17T07:24:52;10.48;63.21
65396;HTU21D;52004;45.136;39.010;2024-03-17T07:27:21;10.51;63.11
65396;HTU21D;52004;45.136;39.010;2024-03-17T07:29:47;10.50;63.11
65396;HTU21D;52004;45.136;39.010;2024-03-17T07:32:13;10.54;63.11
65396;HTU21D;52004;45.136;39.010;2024-03-17T07:34:39;10.55;63.15
65396;HTU21D;52004;45.136;39.010;2024-03-17T07:37:04;10.58;63.12
65396;HTU21D;52004;45.136;39.010;2024-03-17T07:39:31;10.62;63.10
65396;HTU21D;52004;45.136;39.010;2024-03-17T07:42:00;10.65;63.17
65396;HTU21D;52004;45.136;39.010;2024-03-17T07:44:30;10.69;63.17
65396;HTU21D;52004;45.136;39.010;2024-03-17T07:47:03;10.77;63.19
65396;HTU21D;52004;45.136;39.010;2024-03-17T07:49:32;10.85;63.18
65396;HTU21D;52004;45.136;39.010;2024-03-17T07:51:58;10.93;63.21
65396;HTU21D;52004;45.136;39.010;2024-03-17T07:54:24;0.00;63.11
65396;HTU21D;52004;45.136;39.010;2024-03-17T07:56:50;11.08;63.18
65396;HTU21D;52004;45.136;39.010;2024-03-17T07:59:17;11.16;63.19
65396;HTU21D;52004;45.136;39.010;2024-03-17T08:01:46;0.00;63.22
65396;HTU21D;52004;45.136;39.010;2024-03-17T08:04:12;11.34;63.21
65396;HTU21D;52004;45.136;39.010;2024-03-17T08:10:31;11.64;63.09
65396;HTU21D;52004;45.136;39.010;2024-03-17T08:12:57;11.75;63.22
65396;HTU21D;52004;45.136;39.010;2024-03-17T08:15:23;11.86;63.11
65396;HTU21D;52004;45.136;39.010;2024-03-17T08:17:49;11.90;62.98
65396;HTU21D;52004;45.136;39.010;2024-03-17T08:20:15;11.89;62.90
65396;HTU21D;52004;45.136;39.010;2024-03-17T08:22:41;11.91;62.98
65396;HTU21D;52004;45.136;39.010;2024-03-17T08:25:07;11.97;62.89
65396;HTU21D;52004;45.136;39.010;2024-03-17T08:27:33;12.03;62.87
65396;HTU21D;52004;45.136;39.010;2024-03-17T08:29:59;12.11;62.84
65396;HTU21D;52004;45.136;39.010;2024-03-17T08:32:24;12.15;62.84
65396;HTU21D;52004;45.136;39.010;2024-03-17T08:34:50;12.18;62.79
65396;HTU21D;52004;45.136;39.010;2024-03-17T08:37:16;12.18;62.74
65396;HTU21D;52004;45.136;39.010;2024-03-17T08:39:42;12.21;62.70
65396;HTU21D;52004;45.136;39.010;2024-03-17T08:42:08;12.25;62.73
65396;HTU21D;52004;45.136;39.010;2024-03-17T08:44:34;12.29;62.76
65396;HTU21D;52004;45.136;39.010;2024-03-17T08:47:00;12.36;62.87
65396;HTU21D;52004;45.136;39.010;2024-03-17T08:49:26;12.48;63.06
65396;HTU21D;52004;45.136;39.010;2024-03-17T08:51:52;12.62;63.21
65396;HTU21D;52004;45.136;39.010;2024-03-17T08:54:18;12.72;63.36
65396;HTU21D;52004;45.136;39.010;2024-03-17T08:56:43;12.90;63.68
65396;HTU21D;52004;45.136;39.010;2024-03-17T08:59:10;13.10;63.86
65396;HTU21D;52004;45.136;39.010;2024-03-17T09:01:37;13.43;64.14
65396;HTU21D;52004;45.136;39.010;2024-03-17T09:04:03;13.71;63.96
65396;HTU21D;52004;45.136;39.010;2024-03-17T09:06:29;13.92;63.62
65396;HTU21D;52004;45.136;39.010;2024-03-17T09:08:55;14.12;63.79
65396;HTU21D;52004;45.136;39.010;2024-03-17T09:11:21;14.32;63.82
65396;HTU21D;52004;45.136;39.010;2024-03-17T09:13:51;14.51;63.56
65396;HTU21D;52004;45.136;39.010;2024-03-17T09:16:17;14.60;63.30
65396;HTU21D;52004;45.136;39.010;2024-03-17T09:18:44;14.67;63.15
65396;HTU21D;52004;45.136;39.010;2024-03-17T09:21:10;14.71;62.86
65396;HTU21D;52004;45.136;39.010;2024-03-17T09:23:36;14.73;62.75
65396;HTU21D;52004;45.136;39.010;2024-03-17T09:26:08;14.77;62.72
65396;HTU21D;52004;45.136;39.010;2024-03-17T09:28:35;14.81;62.83
65396;HTU21D;52004;45.136;39.010;2024-03-17T09:31:01;14.88;62.73
65396;HTU21D;52004;45.136;39.010;2024-03-17T09:33:27;14.94;62.63
65396;HTU21D;52004;45.136;39.010;2024-03-17T09:36:00;15.02;62.88
65396;HTU21D;52004;45.136;39.010;2024-03-17T09:38:27;15.18;63.02
65396;HTU21D;52004;45.136;39.010;2024-03-17T09:40:53;15.38;63.12
65396;HTU21D;52004;45.136;39.010;2024-03-17T09:43:23;15.53;62.89
65396;HTU21D;52004;45.136;39.010;2024-03-17T09:45:49;15.56;62.56
65396;HTU21D;52004;45.136;39.010;2024-03-17T09:48:16;15.51;62.12
65396;HTU21D;52004;45.136;39.010;2024-03-17T09:50:49;15.41;61.98
65396;HTU21D;52004;45.136;39.010;2024-03-17T09:53:17;15.36;61.91
65396;HTU21D;52004;45.136;39.010;2024-03-17T09:55:43;15.34;61.98
65396;HTU21D;52004;45.136;39.010;2024-03-17T09:58:16;15.44;62.40
65396;HTU21D;52004;45.136;39.010;2024-03-17T10:00:46;15.63;62.62
65396;HTU21D;52004;45.136;39.010;2024-03-17T10:03:12;15.75;62.18
65396;HTU21D;52004;45.136;39.010;2024-03-17T10:05:38;15.70;61.57
65396;HTU21D;52004;45.136;39.010;2024-03-17T10:08:04;15.57;61.57
65396;HTU21D;52004;45.136;39.010;2024-03-17T10:10:30;15.55;61.61
65396;HTU21D;52004;45.136;39.010;2024-03-17T10:12:56;15.57;61.79
65396;HTU21D;52004;45.136;39.010;2024-03-17T10:15:22;15.66;61.79
65396;HTU21D;52004;45.136;39.010;2024-03-17T10:17:49;0.00;61.48
65396;HTU21D;52004;45.136;39.010;2024-03-17T10:20:19;15.69;61.38
65396;HTU21D;52004;45.136;39.010;2024-03-17T10:23:02;15.68;61.24
65396;HTU21D;52004;45.136;39.010;2024-03-17T10:25:31;15.68;61.21
65396;HTU21D;52004;45.136;39.010;2024-03-17T10:27:57;15.66;61.19
65396;HTU21D;52004;45.136;39.010;2024-03-17T10:30:24;15.70;61.53
65396;HTU21D;52004;45.136;39.010;2024-03-17T10:32:52;15.84;61.73
65396;HTU21D;52004;45.136;39.010;2024-03-17T10:35:29;15.96;61.61
65396;HTU21D;52004;45.136;39.010;2024-03-17T10:38:04;16.06;61.44
65396;HTU21D;52004;45.136;39.010;2024-03-17T10:40:30;16.12;61.23
65396;HTU21D;52004;45.136;39.010;2024-03-17T10:42:57;16.15;61.12
65396;HTU21D;52004;45.136;39.010;2024-03-17T10:45:23;16.19;60.97
65396;HTU21D;52004;45.136;39.010;2024-03-17T10:47:51;16.18;60.61
65396;HTU21D;52004;45.136;39.010;2024-03-17T10:53:20;0.00;60.36
65396;HTU21D;52004;45.136;39.010;2024-03-17T10:55:55;15.75;60.26
65396;HTU21D;52004;45.136;39.010;2024-03-17T10:58:32;0.00;60.26
65396;HTU21D;52004;45.136;39.010;2024-03-17T11:00:59;15.65;60.17
65396;HTU21D;52004;45.136;39.010;2024-03-17T11:03:30;15.58;59.99
65396;HTU21D;52004;45.136;39.010;2024-03-17T11:05:57;15.48;60.19
65396;HTU21D;52004;45.136;39.010;2024-03-17T11:08:23;15.47;60.22
65396;HTU21D;52004;45.136;39.010;2024-03-17T11:10:49;15.46;60.19
65396;HTU21D;52004;45.136;39.010;2024-03-17T11:13:28;15.47;60.26
65396;HTU21D;52004;45.136;39.010;2024-03-17T11:15:54;15.51;60.21
65396;HTU21D;52004;45.136;39.010;2024-03-17T11:23:29;15.68;60.31
65396;HTU21D;52004;45.136;39.010;2024-03-17T11:25:55;15.69;60.22
65396;HTU21D;52004;45.136;39.010;2024-03-17T11:33:52;15.83;60.22
65396;HTU21D;52004;45.136;39.010;2024-03-17T11:51:50;16.49;60.40
65396;HTU21D;52004;45.136;39.010;2024-03-17T11:54:18;16.70;60.38
65396;HTU21D;52004;45.136;39.010;2024-03-17T11:56:45;16.88;60.30
65396;HTU21D;52004;45.136;39.010;2024-03-17T11:59:11;17.02;60.22
65396;HTU21D;52004;45.136;39.010;2024-03-17T12:01:37;17.10;59.85
65396;HTU21D;52004;45.136;39.010;2024-03-17T12:04:05;17.05;59.57
65396;HTU21D;52004;45.136;39.010;2024-03-17T12:06:31;17.00;59.48
65396;HTU21D;52004;45.136;39.010;2024-03-17T12:11:42;16.99;59.52
65396;HTU21D;52004;45.136;39.010;2024-03-17T12:14:29;16.99;59.45
65396;HTU21D;52004;45.136;39.010;2024-03-17T12:16:55;17.11;59.61
65396;HTU21D;52004;45.136;39.010;2024-03-17T12:19:22;0.00;59.61
65396;HTU21D;52004;45.136;39.010;2024-03-17T12:21:49;17.39;59.50
65396;HTU21D;52004;45.136;39.010;2024-03-17T12:24:17;17.49;59.42
65396;HTU21D;52004;45.136;39.010;2024-03-17T12:26:43;17.63;59.44
65396;HTU21D;52004;45.136;39.010;2024-03-17T12:31:56;17.81;59.09
65396;HTU21D;52004;45.136;39.010;2024-03-17T12:34:22;17.81;58.99
65396;HTU21D;52004;45.136;39.010;2024-03-17T12:36:50;17.78;58.72
65396;HTU21D;52004;45.136;39.010;2024-03-17T12:41:45;17.55;58.51
65396;HTU21D;52004;45.136;39.010;2024-03-17T12:44:26;17.44;58.53
65396;HTU21D;52004;45.136;39.010;2024-03-17T12:46:59;17.41;58.61
65396;HTU21D;52004;45.136;39.010;2024-03-17T12:49:26;17.48;58.75
65396;HTU21D;52004;45.136;39.010;2024-03-17T12:51:52;17.55;58.70
65396;HTU21D;52004;45.136;39.010;2024-03-17T12:54:24;17.61;58.54
65396;HTU21D;52004;45.136;39.010;2024-03-17T12:56:51;17.61;58.39
65396;HTU21D;52004;45.136;39.010;2024-03-17T13:00:01;17.55;58.19
65396;HTU21D;52004;45.136;39.010;2024-03-17T13:02:46;17.45;57.90
65396;HTU21D;52004;45.136;39.010;2024-03-17T13:05:19;17.30;57.82
65396;HTU21D;52004;45.136;39.010;2024-03-17T13:07:46;17.15;57.84
65396;HTU21D;52004;45.136;39.010;2024-03-17T13:10:15;17.04;58.02
65396;HTU21D;52004;45.136;39.010;2024-03-17T13:12:41;16.95;58.09
65396;HTU21D;52004;45.136;39.010;2024-03-17T13:15:14;16.92;58.09
65396;HTU21D;52004;45.136;39.010;2024-03-17T13:17:41;16.87;58.03
65396;HTU21D;52004;45.136;39.010;2024-03-17T13:20:14;0.00;58.11
65396;HTU21D;52004;45.136;39.010;2024-03-17T13:22:41;16.87;58.16
65396;HTU21D;52004;45.136;39.010;2024-03-17T13:25:17;16.89;58.02
65396;HTU21D;52004;45.136;39.010;2024-03-17T13:27:44;16.81;57.73
65396;HTU21D;52004;45.136;39.010;2024-03-17T13:30:11;16.70;57.74
65396;HTU21D;52004;45.136;39.010;2024-03-17T13:32:37;16.61;57.79
65396;HTU21D;52004;45.136;39.010;2024-03-17T13:35:05;16.57;57.84
65396;HTU21D;52004;45.136;39.010;2024-03-17T13:37:56;16.50;57.80
65396;HTU21D;52004;45.136;39.010;2024-03-17T13:40:26;16.45;57.81
65396;HTU21D;52004;45.136;39.010;2024-03-17T13:45:43;16.31;57.78
65396;HTU21D;52004;45.136;39.010;2024-03-17T13:48:10;16.22;57.81
65396;HTU21D;52004;45.136;39.010;2024-03-17T13:50:40;16.18;57.86
65396;HTU21D;52004;45.136;39.010;2024-03-17T13:53:10;16.13;57.84
65396;HTU21D;52004;45.136;39.010;2024-03-17T13:55:36;16.07;57.80
65396;HTU21D;52004;45.136;39.010;2024-03-17T13:58:02;16.02;57.85
65396;HTU21D;52004;45.136;39.010;2024-03-17T14:00:30;15.98;57.79
65396;HTU21D;52004;45.136;39.010;2024-03-17T14:02:56;15.90;57.80
65396;HTU21D;52004;45.136;39.010;2024-03-17T14:05:23;0.00;57.80
65396;HTU21D;52004;45.136;39.010;2024-03-17T14:07:49;15.82;57.81
65396;HTU21D;52004;45.136;39.010;2024-03-17T14:10:17;15.77;57.84
65396;HTU21D;52004;45.136;39.010;2024-03-17T14:12:43;15.75;57.81
65396;HTU21D;52004;45.136;39.010;2024-03-17T14:15:11;15.72;57.74
65396;HTU21D;52004;45.136;39.010;2024-03-17T14:17:40;15.66;57.74
65396;HTU21D;52004;45.136;39.010;2024-03-17T14:20:06;15.61;57.73
65396;HTU21D;52004;45.136;39.010;2024-03-17T14:22:38;15.56;57.74
65396;HTU21D;52004;45.136;39.010;2024-03-17T14:25:07;15.52;57.77
65396;HTU21D;52004;45.136;39.010;2024-03-17T14:27:35;15.47;57.70
65396;HTU21D;52004;45.136;39.010;2024-03-17T14:30:01;15.42;57.74
65396;HTU21D;52004;45.136;39.010;2024-03-17T14:32:27;15.36;57.71
65396;HTU21D;52004;45.136;39.010;2024-03-17T14:34:53;15.31;57.71
65396;HTU21D;52004;45.136;39.010;2024-03-17T14:37:19;15.25;57.72
65396;HTU21D;52004;45.136;39.010;2024-03-17T14:39:45;15.21;57.72
65396;HTU21D;52004;45.136;39.010;2024-03-17T14:42:12;15.16;57.71
65396;HTU21D;52004;45.136;39.010;2024-03-17T14:44:38;15.10;57.69
65396;HTU21D;52004;45.136;39.010;2024-03-17T14:47:04;15.00;57.68
65396;HTU21D;52004;45.136;39.010;2024-03-17T14:49:30;14.89;57.71
65396;HTU21D;52004;45.136;39.010;2024-03-17T14:51:56;0.00;57.76
65396;HTU21D;52004;45.136;39.010;2024-03-17T14:54:22;14.58;57.90
65396;HTU21D;52004;45.136;39.010;2024-03-17T14:56:51;14.45;58.02
65396;HTU21D;52004;45.136;39.010;2024-03-17T14:59:16;14.32;58.14
65396;HTU21D;52004;45.136;39.010;2024-03-17T15:01:47;14.22;58.22
65396;HTU21D;52004;45.136;39.010;2024-03-17T15:04:13;14.12;58.32
65396;HTU21D;52004;45.136;39.010;2024-03-17T15:06:42;14.09;58.42
65396;HTU21D;52004;45.136;39.010;2024-03-17T15:09:11;14.06;58.33
65396;HTU21D;52004;45.136;39.010;2024-03-17T15:11:44;13.96;58.39
65396;HTU21D;52004;45.136;39.010;2024-03-17T15:14:11;13.83;58.48
65396;HTU21D;52004;45.136;39.010;2024-03-17T15:16:37;13.75;58.61
65396;HTU21D;52004;45.136;39.010;2024-03-17T15:19:05;0.00;58.68
65396;HTU21D;52004;45.136;39.010;2024-03-17T15:21:31;0.00;58.67
65396;HTU21D;52004;45.136;39.010;2024-03-17T15:23:56;13.60;58.70
65396;HTU21D;52004;45.136;39.010;2024-03-17T15:26:22;13.55;58.74
65396;HTU21D;52004;45.136;39.010;2024-03-17T15:28:49;13.51;58.76
65396;HTU21D;52004;45.136;39.010;2024-03-17T15:31:14;13.48;58.83
65396;HTU21D;52004;45.136;39.010;2024-03-17T15:33:40;13.48;58.83
65396;HTU21D;52004;45.136;39.010;2024-03-17T15:36:07;13.48;58.87
65396;HTU21D;52004;45.136;39.010;2024-03-17T15:38:33;13.50;58.83
65396;HTU21D;52004;45.136;39.010;2024-03-17T15:41:09;13.49;58.85
65396;HTU21D;52004;45.136;39.010;2024-03-17T15:43:38;13.47;58.83
65396;HTU21D;52004;45.136;39.010;2024-03-17T15:46:31;13.49;58.90
65396;HTU21D;52004;45.136;39.010;2024-03-17T15:48:57;13.52;58.88
65396;HTU21D;52004;45.136;39.010;2024-03-17T15:51:26;13.55;58.87